Willmar, MN (56201)

4:41 PM CDT on August 21, 2014 (GMT -0500)
Willmar | Change Station
CLOSE
Current Station
Airport
Location: Willmar,
Elevation: 1125 ft
Nearby Weather Stations

Elev 1125 ft 45.12 °N, 95.13 °W | Updated 6 minutes ago

Clear
Clear
82 °F
Feels Like 86 °F
N
7
Wind Variable Wind from North

Today
High -- | Low -- °F
--% Chance of Precip.
Yesterday
High -- | Low -- °F
Precip. -- in
6:28 AM 8:16 PM
Waning Crescent, 12% visible
Pressure 29.81 in
Visibility 10.0 miles
Clouds Clear
Heat Index 86 °F
Dew Point 70 °F
Humidity 66%
Rainfall 3.62 in
Snow Depth Not available.
UV 5 out of 12
Pollen 3.90 out of 12
Air Quality Not available.
Flu Activity Not available.
METAR KBDH 212135Z AUTO 35006KT 10SM CLR 28/21 A2981 RMK AO2

More Conditions Fewer Conditions

Pressure 29.81 in
Visibility 10.0 miles
Clouds Clear
Heat Index 86 °F
Dew Point 70 °F
Humidity 66%
Rainfall 3.62 in
Snow Depth Not available.
UV 5 out of 12
Pollen 3.90 out of 12
Air Quality Not available.
Flu Activity Not available.
METAR KBDH 212135Z AUTO 35006KT 10SM CLR 28/21 A2981 RMK AO2

More Conditions Fewer Conditions

10-Day Weather Forecast

Almanac

Astronomy

Aug. 21, 2014 Rise Set
Actual Time 6:28 AM CDT 8:16 PM CDT
Civil Twilight 5:57 AM CDT 8:48 PM CDT
Nautical Twilight 5:19 AM CDT 9:26 PM CDT
Astronomical Twilight 4:37 AM CDT 10:07 PM CDT
Moon 2:55 AM CDT 5:50 PM CDT
Length of Visible Light 14h 50m
Length of Day
13h 47m
Tomorrow will be 2m 54s shorter.
Waning Crescent, 12% of the Moon is Illuminated
Today
Waning Crescent
Aug 25
New
Sep 2
First Quarter
Sep 8
Full
Sep 15
Last Quarter

Today's Extremes

State Highs State Lows

Community

WunderPhotos

Upload Photos

1,746,021 photos uploaded!

WunderBlogs® & News

Nearby

Snow Depth

Station Depth Elevation
No new snow has been reported.

Earthquake Activity

City Distance Mag. Time & Date
No recent earthquake activity has been reported nearby.
Minimum magnitude displayed is 2.5.

Coastal Water Temperatures

Place Temperature
No Stations Reporting

Nearby Weather Stations